< < Back
Terminal Aerodrome Forecast


Current Version              Previous Versions:   1  2  3  4  5  6  7  8  9  

Terminal Aerodrome Forecast

997
FTUS42 KJAX 261100 AAA
TAFSSI
TAF AMD
KSSI 261151Z 2612/2712 31012KT 5SM -RA BR SCT010 OVC020
      TEMPO 2612/2614 OVC010
     FM261400 30012G22KT P6SM VCSH SCT007 BKN015
     FM261900 29011KT P6SM SCT025 SCT250
     FM262300 27007KT P6SM SKC=

Latest METAR

350
SAUS70 KWBC 270300 RRJ
MTRSSI
METAR KSSI 270253Z AUTO 25005KT 10SM CLR 10/03 A3017 RMK AO2 SLP217
T01000033 53008


USA.gov is the U.S. government's official web portal to all federal, state and local government web resources and services.